createdAt,value
2019-06-08T00:00:20.791Z,50.78
2019-06-08T00:02:55.332Z,50.99
2019-06-08T00:05:29.761Z,51.39
2019-06-08T00:08:03.007Z,51.32
2019-06-08T00:10:37.286Z,51.60
2019-06-08T00:13:13.041Z,51.37
2019-06-08T00:15:48.621Z,51.32
2019-06-08T00:18:23.624Z,51.32
2019-06-08T00:20:58.238Z,51.42
2019-06-08T00:23:32.678Z,50.75
2019-06-08T00:26:05.671Z,50.30
2019-06-08T00:28:41.295Z,50.50
2019-06-08T00:31:17.162Z,49.99
2019-06-08T00:33:51.765Z,50.20
2019-06-08T00:36:26.200Z,50.12
2019-06-08T00:39:00.870Z,50.41
2019-06-08T00:41:38.871Z,50.43
2019-06-08T00:44:13.272Z,50.20
2019-06-08T00:46:47.846Z,49.64
2019-06-08T00:49:20.699Z,49.64
2019-06-08T00:51:54.937Z,49.80
2019-06-08T00:54:29.800Z,50.10
2019-06-08T00:57:02.861Z,49.58
2019-06-08T00:59:37.107Z,49.50
2019-06-08T01:02:11.668Z,49.59
2019-06-08T01:04:46.061Z,49.59
2019-06-08T01:07:22.022Z,50.56
2019-06-08T01:09:56.778Z,50.56
2019-06-08T01:12:30.953Z,50.55
2019-06-08T01:15:05.897Z,50.42
2019-06-08T01:17:40.286Z,50.69
2019-06-08T01:20:14.862Z,51.97
2019-06-08T01:22:49.113Z,51.97
2019-06-08T01:25:23.756Z,52.21
2019-06-08T01:27:56.861Z,52.38
2019-06-08T01:30:31.353Z,52.65
2019-06-08T01:33:05.946Z,51.96
2019-06-08T01:35:40.648Z,51.57
2019-06-08T01:38:14.949Z,51.42
2019-06-08T01:40:49.285Z,51.59
2019-06-08T01:43:23.936Z,51.73
2019-06-08T01:45:57.006Z,52.19
2019-06-08T01:48:32.296Z,51.96
2019-06-08T01:51:06.937Z,52.28
2019-06-08T01:53:41.277Z,52.28
2019-06-08T01:56:15.718Z,52.00
2019-06-08T01:58:49.965Z,52.00
2019-06-08T02:01:25.478Z,51.63
2019-06-08T02:03:58.665Z,51.32
2019-06-08T02:06:37.314Z,50.98
2019-06-08T02:09:11.945Z,50.52
2019-06-08T02:11:46.639Z,50.66
2019-06-08T02:14:21.128Z,50.21
2019-06-08T02:16:55.684Z,50.16
2019-06-08T02:19:30.565Z,50.02
2019-06-08T02:22:04.947Z,48.90
2019-06-08T02:24:39.621Z,48.63
2019-06-08T02:27:14.276Z,48.21
2019-06-08T02:29:48.743Z,48.38
2019-06-08T02:32:23.119Z,47.44
2019-06-08T02:34:57.540Z,47.44
2019-06-08T02:37:33.090Z,47.86
2019-06-08T02:40:07.938Z,47.67
2019-06-08T02:42:40.983Z,48.14
2019-06-08T02:45:14.280Z,48.14
2019-06-08T02:47:48.750Z,47.51
2019-06-08T02:50:48.595Z,47.44
2019-06-08T02:53:23.654Z,47.48
2019-06-08T02:55:59.284Z,47.54
2019-06-08T02:58:36.925Z,47.26
2019-06-08T03:01:12.069Z,47.30
2019-06-08T03:03:47.646Z,47.50
2019-06-08T03:06:23.665Z,47.50
2019-06-08T03:09:00.321Z,47.67
2019-06-08T03:11:40.920Z,48.30
2019-06-08T03:14:15.701Z,48.30
2019-06-08T03:16:48.653Z,48.28
2019-06-08T03:19:23.272Z,48.05
2019-06-08T03:21:58.283Z,47.95
2019-06-08T03:24:34.421Z,48.00
2019-06-08T03:27:09.686Z,48.18
2019-06-08T03:29:44.043Z,48.13
2019-06-08T03:32:18.266Z,48.08
2019-06-08T03:34:56.476Z,47.83
2019-06-08T03:37:29.276Z,47.77
2019-06-08T03:40:03.690Z,47.80
2019-06-08T03:42:38.296Z,48.04
2019-06-08T03:45:13.684Z,47.93
2019-06-08T03:47:47.951Z,47.96
2019-06-08T03:50:22.671Z,48.46
2019-06-08T03:52:57.113Z,48.46
2019-06-08T03:55:31.670Z,48.41
2019-06-08T03:58:06.105Z,48.41
2019-06-08T04:00:40.555Z,49.11
2019-06-08T04:03:14.939Z,49.11
2019-06-08T04:05:50.086Z,49.11
2019-06-08T04:08:24.716Z,48.87
2019-06-08T04:10:59.130Z,48.97
2019-06-08T04:13:33.695Z,48.67
2019-06-08T04:16:08.285Z,48.39
2019-06-08T04:18:44.503Z,48.65
2019-06-08T04:21:18.978Z,48.31
2019-06-08T04:23:53.362Z,48.87
2019-06-08T04:26:28.672Z,48.79
2019-06-08T04:29:03.348Z,48.56
2019-06-08T04:31:43.994Z,47.98
2019-06-08T04:34:19.948Z,48.31
2019-06-08T04:38:50.267Z,47.83
2019-06-08T04:41:24.948Z,46.86
2019-06-08T04:43:59.317Z,47.21
2019-06-08T04:46:38.367Z,47.22
2019-06-08T04:49:12.948Z,47.31
2019-06-08T04:51:49.570Z,47.01
2019-06-08T04:54:22.812Z,46.82
2019-06-08T04:56:57.139Z,46.89
2019-06-08T04:59:31.684Z,47.29
2019-06-08T05:02:07.595Z,47.41
2019-06-08T05:04:43.255Z,47.62
2019-06-08T05:07:17.894Z,46.90
2019-06-08T05:09:52.358Z,47.30
2019-06-08T05:12:26.954Z,47.40
2019-06-08T05:15:00.063Z,47.19
2019-06-08T05:17:34.283Z,47.59
2019-06-08T05:20:08.891Z,47.48
2019-06-08T05:22:43.606Z,47.66
2019-06-08T05:25:17.953Z,47.55
2019-06-08T05:27:52.296Z,47.56
2019-06-08T05:30:28.190Z,46.70
2019-06-08T05:33:02.913Z,46.70
2019-06-08T05:35:36.050Z,46.89
2019-06-08T05:40:27.284Z,46.50
2019-06-08T05:43:01.957Z,46.32
2019-06-08T05:45:36.651Z,46.23
2019-06-08T05:48:10.947Z,46.23
2019-06-08T05:51:00.499Z,45.68
2019-06-08T05:53:21.354Z,45.75
2019-06-08T05:55:55.897Z,45.89
2019-06-08T05:58:30.266Z,45.99
2019-06-08T06:01:04.694Z,46.37
2019-06-08T06:03:40.328Z,46.64
2019-06-08T06:08:35.660Z,45.68
2019-06-08T06:11:10.549Z,45.68
2019-06-08T06:13:45.185Z,46.02
2019-06-08T06:16:19.687Z,46.35
2019-06-08T06:18:54.136Z,46.17
2019-06-08T06:21:29.589Z,46.17
2019-06-08T06:24:05.650Z,46.75
2019-06-08T06:26:43.235Z,46.39
2019-06-08T06:29:17.707Z,46.53
2019-06-08T06:31:52.199Z,46.90
2019-06-08T06:34:26.991Z,46.52
2019-06-08T06:37:01.689Z,45.83
2019-06-08T06:39:34.708Z,45.83
2019-06-08T06:42:09.195Z,46.01
2019-06-08T06:44:45.714Z,45.91
2019-06-08T06:47:20.165Z,45.45
2019-06-08T06:49:54.959Z,44.94
2019-06-08T06:52:29.665Z,44.82
2019-06-08T06:55:04.249Z,44.82
2019-06-08T06:57:38.697Z,44.05
2019-06-08T07:00:12.282Z,43.80
2019-06-08T07:02:47.629Z,43.32
2019-06-08T07:05:22.131Z,43.13
2019-06-08T07:07:56.746Z,42.83
2019-06-08T07:10:31.213Z,42.83
2019-06-08T07:13:05.753Z,42.65
2019-06-08T07:15:41.910Z,42.02
2019-06-08T07:18:15.955Z,42.02
2019-06-08T07:20:50.310Z,42.44
2019-06-08T07:23:24.924Z,41.76
2019-06-08T07:25:59.354Z,41.62
2019-06-08T07:28:34.093Z,41.47
2019-06-08T07:31:08.625Z,41.79
2019-06-08T07:33:42.949Z,41.79
2019-06-08T07:36:17.944Z,41.24
2019-06-08T07:38:51.425Z,41.56
2019-06-08T07:41:26.255Z,41.30
2019-06-08T07:44:01.283Z,41.41
2019-06-08T07:46:40.954Z,41.13
2019-06-08T07:49:14.286Z,41.13
2019-06-08T07:51:58.709Z,40.83
2019-06-08T07:54:25.137Z,40.83
2019-06-08T07:56:59.770Z,41.28
2019-06-08T07:59:34.701Z,41.62
2019-06-08T08:02:09.281Z,41.62
2019-06-08T08:04:43.918Z,40.62
2019-06-08T08:07:18.514Z,40.28
2019-06-08T08:09:54.803Z,40.12
2019-06-08T08:12:29.690Z,40.23
2019-06-08T08:15:04.337Z,40.23
2019-06-08T08:17:39.285Z,39.50
2019-06-08T08:20:13.948Z,39.51
2019-06-08T08:22:52.615Z,40.22
2019-06-08T08:25:25.278Z,40.22
2019-06-08T08:28:01.067Z,40.11
2019-06-08T08:30:37.669Z,39.97
2019-06-08T08:33:11.121Z,39.97
2019-06-08T08:35:48.178Z,40.09
2019-06-08T08:38:23.465Z,40.09
2019-06-08T08:41:06.301Z,40.14
2019-06-08T08:43:34.342Z,40.14
2019-06-08T08:46:08.979Z,40.38
2019-06-08T08:48:43.694Z,40.31
2019-06-08T08:51:20.698Z,40.75
2019-06-08T08:53:59.970Z,40.54
2019-06-08T08:56:38.159Z,40.69
2019-06-08T08:59:12.063Z,40.46
2019-06-08T09:01:48.279Z,40.53
2019-06-08T09:04:23.078Z,40.53
2019-06-08T09:07:02.380Z,40.01
2019-06-08T09:09:34.283Z,40.01
2019-06-08T09:12:08.887Z,39.75
2019-06-08T09:14:43.327Z,39.69
2019-06-08T09:17:18.217Z,39.69
2019-06-08T09:19:54.019Z,39.70
2019-06-08T09:22:28.190Z,39.71
2019-06-08T09:25:04.509Z,37.11
2019-06-08T09:27:39.277Z,37.11
2019-06-08T09:30:14.773Z,37.24
2019-06-08T09:32:49.340Z,37.76
2019-06-08T09:35:23.989Z,37.76
2019-06-08T09:38:01.089Z,37.81
2019-06-08T09:40:34.639Z,37.33
2019-06-08T09:43:12.342Z,37.08
2019-06-08T09:45:44.276Z,37.40
2019-06-08T09:48:18.713Z,37.18
2019-06-08T09:50:53.203Z,36.77
2019-06-08T09:53:36.596Z,37.07
2019-06-08T09:56:06.522Z,37.07
2019-06-08T09:58:40.704Z,38.24
2019-06-08T10:01:15.506Z,38.24
2019-06-08T10:03:50.434Z,38.57
2019-06-08T10:06:24.947Z,38.55
2019-06-08T10:10:40.674Z,38.11
2019-06-08T10:13:13.685Z,37.74
2019-06-08T10:15:51.335Z,37.37
2019-06-08T10:18:24.351Z,38.44
2019-06-08T10:21:01.373Z,38.74
2019-06-08T10:23:41.198Z,39.72
2019-06-08T10:26:13.458Z,39.72
2019-06-08T10:31:01.207Z,39.56
2019-06-08T10:33:37.714Z,39.76
2019-06-08T10:36:12.827Z,39.76
2019-06-08T10:38:48.073Z,40.28
2019-06-08T10:41:23.257Z,40.28
2019-06-08T10:43:59.127Z,39.80
2019-06-08T10:46:40.319Z,39.50
2019-06-08T10:49:14.146Z,39.13
2019-06-08T10:51:49.014Z,38.54
2019-06-08T10:54:23.967Z,37.05
2019-06-08T10:57:01.828Z,37.05
2019-06-08T10:59:43.537Z,37.49
2019-06-08T11:02:19.305Z,37.06
2019-06-08T11:04:53.897Z,37.34
2019-06-08T11:10:11.631Z,37.62
2019-06-08T11:12:44.361Z,37.02
2019-06-08T11:15:20.696Z,36.55
2019-06-08T11:17:59.930Z,35.81
2019-06-08T11:20:31.757Z,34.55
2019-06-08T11:23:09.821Z,34.35
2019-06-08T11:25:41.110Z,31.59
2019-06-08T11:28:18.442Z,30.75
2019-06-08T11:30:53.734Z,28.93
2019-06-08T11:33:30.426Z,27.41
2019-06-08T11:36:09.995Z,25.96
2019-06-08T11:38:41.294Z,25.96
2019-06-08T11:41:18.311Z,24.96
2019-06-08T11:43:52.270Z,23.97
2019-06-08T11:46:28.217Z,23.42
2019-06-08T11:49:05.894Z,23.66
2019-06-08T11:51:47.684Z,24.57
2019-06-08T11:54:36.314Z,23.52
2019-06-08T11:56:58.340Z,21.81
2019-06-08T11:59:34.755Z,20.27
2019-06-08T12:02:13.541Z,20.09
2019-06-08T12:04:46.276Z,19.98
2019-06-08T12:07:20.886Z,20.15
2019-06-08T12:09:55.292Z,19.99
2019-06-08T12:12:29.742Z,19.57
2019-06-08T12:15:04.843Z,19.11
2019-06-08T12:17:39.335Z,18.71
2019-06-08T12:20:17.562Z,18.67
2019-06-08T12:22:50.355Z,18.78
2019-06-08T12:25:24.985Z,18.97
2019-06-08T12:27:59.786Z,17.31
2019-06-08T12:30:32.862Z,17.31
2019-06-08T12:33:09.372Z,17.34
2019-06-08T12:35:43.898Z,17.42
2019-06-08T12:38:19.259Z,16.82
2019-06-08T12:41:17.097Z,17.61
2019-06-08T12:43:51.402Z,16.59
2019-06-08T12:46:28.401Z,15.75
2019-06-08T12:49:02.983Z,15.74
2019-06-08T12:51:42.669Z,16.01
2019-06-08T12:54:19.386Z,15.45
2019-06-08T12:56:53.300Z,15.49
2019-06-08T12:59:28.431Z,14.29
2019-06-08T13:02:02.937Z,14.29
2019-06-08T13:04:38.383Z,14.97
2019-06-08T13:07:13.208Z,15.01
2019-06-08T13:09:48.353Z,13.98
2019-06-08T13:12:22.899Z,14.42
2019-06-08T13:14:58.255Z,14.93
2019-06-08T13:17:32.926Z,14.93
2019-06-08T13:20:12.793Z,15.32
2019-06-08T13:22:48.001Z,15.55
2019-06-08T13:25:36.461Z,15.12
2019-06-08T13:27:58.717Z,15.14
2019-06-08T13:30:32.473Z,15.14
2019-06-08T13:33:08.167Z,15.85
2019-06-08T13:35:42.927Z,14.87
2019-06-08T13:38:19.653Z,14.72
2019-06-08T13:40:53.356Z,15.14
2019-06-08T13:43:27.945Z,15.63
2019-06-08T13:46:02.274Z,15.19
2019-06-08T13:48:37.635Z,15.48
2019-06-08T13:51:11.852Z,15.71
2019-06-08T13:53:47.851Z,15.59
2019-06-08T13:56:24.027Z,15.30
2019-06-08T13:58:58.735Z,14.50
2019-06-08T14:01:33.564Z,14.77
2019-06-08T14:04:08.813Z,14.86
2019-06-08T14:06:48.583Z,15.07
2019-06-08T14:09:23.290Z,15.19
2019-06-08T14:11:58.157Z,14.14
2019-06-08T14:14:33.779Z,14.38
2019-06-08T14:17:08.680Z,14.29
2019-06-08T14:19:42.044Z,14.29
2019-06-08T14:22:20.097Z,13.86
2019-06-08T14:24:52.358Z,14.30
2019-06-08T14:27:28.560Z,14.36
2019-06-08T14:30:03.122Z,14.61
2019-06-08T14:32:38.221Z,14.66
2019-06-08T14:35:12.876Z,14.44
2019-06-08T14:37:48.197Z,14.77
2019-06-08T14:40:23.458Z,14.85
2019-06-08T14:42:58.172Z,14.81
2019-06-08T14:45:32.731Z,14.91
2019-06-08T14:48:05.678Z,14.49
2019-06-08T14:50:40.837Z,14.69
2019-06-08T14:53:18.446Z,15.12
2019-06-08T14:56:04.937Z,16.45
2019-06-08T14:58:33.572Z,16.02
2019-06-08T15:01:05.112Z,16.02
2019-06-08T15:03:39.688Z,16.83
2019-06-08T15:06:12.865Z,17.84
2019-06-08T15:08:50.033Z,17.84
2019-06-08T15:11:21.716Z,18.31
2019-06-08T15:13:58.167Z,19.30
2019-06-08T15:16:33.435Z,19.30
2019-06-08T15:19:08.243Z,18.97
2019-06-08T15:21:44.963Z,19.45
2019-06-08T15:24:20.642Z,20.62
2019-06-08T15:26:53.812Z,20.62
2019-06-08T15:29:30.719Z,21.83
2019-06-08T15:32:04.720Z,21.26
2019-06-08T15:34:39.125Z,21.26
2019-06-08T15:37:13.753Z,21.68
2019-06-08T15:39:48.654Z,22.03
2019-06-08T15:42:24.259Z,21.90
2019-06-08T15:44:59.623Z,22.72
2019-06-08T15:47:32.859Z,22.96
2019-06-08T15:50:09.282Z,22.65
2019-06-08T15:52:44.679Z,22.64
2019-06-08T15:55:20.007Z,22.64
2019-06-08T15:57:55.689Z,23.70
2019-06-08T16:00:33.230Z,23.64
2019-06-08T16:03:08.952Z,23.70
2019-06-08T16:05:43.286Z,23.76
2019-06-08T16:08:17.793Z,23.77
2019-06-08T16:10:50.805Z,23.49
2019-06-08T16:13:24.976Z,23.64
2019-06-08T16:18:46.996Z,23.98
2019-06-08T16:21:21.364Z,24.13
2019-06-08T16:23:56.302Z,25.35
2019-06-08T16:26:31.734Z,24.12
2019-06-08T16:29:07.962Z,24.12
2019-06-08T16:31:44.338Z,24.68
2019-06-08T16:34:18.807Z,24.42
2019-06-08T16:36:52.975Z,25.31
2019-06-08T16:39:28.619Z,24.91
2019-06-08T16:42:02.130Z,25.47
2019-06-08T16:44:36.762Z,25.06
2019-06-08T16:47:11.276Z,25.06
2019-06-08T16:49:45.933Z,25.25
2019-06-08T16:52:20.623Z,25.25
2019-06-08T16:54:55.002Z,25.39
2019-06-08T16:57:30.948Z,25.71
2019-06-08T17:00:30.097Z,25.90
2019-06-08T17:02:41.956Z,25.90
2019-06-08T17:05:16.287Z,25.84
2019-06-08T17:07:51.780Z,25.93
2019-06-08T17:10:24.871Z,26.42
2019-06-08T17:12:58.962Z,26.68
2019-06-08T17:15:34.081Z,26.59
2019-06-08T17:18:08.743Z,26.03
2019-06-08T17:20:43.349Z,26.03
2019-06-08T17:23:17.898Z,25.99
2019-06-08T17:25:52.282Z,26.17
2019-06-08T17:28:26.750Z,26.08
2019-06-08T17:31:01.278Z,26.35
2019-06-08T17:33:35.905Z,26.32
2019-06-08T17:36:10.376Z,26.12
2019-06-08T17:38:45.123Z,26.18
2019-06-08T17:41:19.722Z,26.88
2019-06-08T17:43:54.279Z,26.88
2019-06-08T17:46:29.296Z,26.36
2019-06-08T17:50:35.116Z,27.01
2019-06-08T17:53:09.723Z,27.01
2019-06-08T17:55:44.294Z,26.62
2019-06-08T17:58:21.196Z,26.84
2019-06-08T18:00:55.096Z,26.51
2019-06-08T18:03:29.690Z,27.05
2019-06-08T18:06:07.159Z,27.05
2019-06-08T18:08:41.960Z,26.97
2019-06-08T18:11:17.329Z,27.01
2019-06-08T18:13:51.957Z,27.31
2019-06-08T18:16:27.870Z,27.43
2019-06-08T18:19:03.562Z,27.43
2019-06-08T18:21:42.914Z,27.56
2019-06-08T18:24:17.590Z,27.59
2019-06-08T18:26:52.704Z,27.96
2019-06-08T18:29:27.655Z,28.49
2019-06-08T18:32:03.585Z,28.54
2019-06-08T18:34:39.965Z,28.35
2019-06-08T18:37:13.660Z,28.30
2019-06-08T18:39:50.700Z,28.27
2019-06-08T18:42:23.701Z,28.27
2019-06-08T18:44:58.372Z,28.24
2019-06-08T18:47:33.306Z,28.36
2019-06-08T18:50:09.071Z,28.36
2019-06-08T18:52:46.522Z,28.80
2019-06-08T18:55:22.339Z,28.85
2019-06-08T18:57:59.001Z,28.92
2019-06-08T19:00:42.038Z,29.19
2019-06-08T19:03:17.148Z,29.19
2019-06-08T19:05:52.408Z,29.34
2019-06-08T19:08:28.897Z,30.12
2019-06-08T19:11:03.689Z,30.12
2019-06-08T19:13:37.901Z,30.04
2019-06-08T19:16:12.353Z,30.28
2019-06-08T19:18:52.570Z,30.39
2019-06-08T19:21:27.790Z,30.90
2019-06-08T19:24:02.958Z,30.90
2019-06-08T19:26:39.737Z,31.02
2019-06-08T19:29:14.291Z,31.40
2019-06-08T19:31:51.396Z,31.40
2019-06-08T19:34:29.029Z,31.68
2019-06-08T19:37:02.668Z,31.76
2019-06-08T19:39:39.598Z,31.76
2019-06-08T19:42:13.290Z,31.95
2019-06-08T19:44:59.634Z,32.38
2019-06-08T19:47:23.940Z,32.38
2019-06-08T19:49:58.380Z,32.44
2019-06-08T19:52:33.888Z,32.95
2019-06-08T19:55:08.320Z,33.10
2019-06-08T19:57:43.373Z,33.50
2019-06-08T20:00:18.210Z,32.95
2019-06-08T20:02:55.086Z,33.32
2019-06-08T20:05:29.273Z,32.98
2019-06-08T20:08:03.898Z,32.98
2019-06-08T20:10:39.065Z,33.29
2019-06-08T20:13:15.787Z,35.56
2019-06-08T20:15:56.497Z,33.67
2019-06-08T20:18:27.930Z,33.67
2019-06-08T20:21:02.662Z,33.67
2019-06-08T20:23:38.289Z,33.88
2019-06-08T20:26:13.509Z,33.76
2019-06-08T20:28:51.015Z,35.08
2019-06-08T20:31:23.959Z,33.95
2019-06-08T20:33:58.679Z,33.82
2019-06-08T20:36:33.966Z,34.08
2019-06-08T20:39:10.406Z,34.08
2019-06-08T20:41:48.930Z,35.31
2019-06-08T20:44:22.008Z,38.34
2019-06-08T20:46:57.735Z,39.81
2019-06-08T20:49:32.144Z,39.81
2019-06-08T20:52:08.616Z,41.06
2019-06-08T20:54:42.961Z,41.06
2019-06-08T20:57:17.709Z,41.08
2019-06-08T20:59:53.580Z,40.31
2019-06-08T21:02:28.473Z,41.18
2019-06-08T21:05:02.902Z,42.34
2019-06-08T21:07:37.340Z,41.78
2019-06-08T21:10:13.289Z,41.78
2019-06-08T21:12:49.906Z,41.76
2019-06-08T21:15:23.960Z,41.63
2019-06-08T21:17:58.284Z,42.24
2019-06-08T21:20:32.727Z,42.35
2019-06-08T21:23:08.159Z,42.84
2019-06-08T21:25:42.898Z,43.29
2019-06-08T21:28:17.285Z,43.01
2019-06-08T21:30:55.975Z,42.30
2019-06-08T21:33:27.950Z,42.49
2019-06-08T21:36:04.995Z,42.75
2019-06-08T21:38:37.761Z,42.36
2019-06-08T21:41:12.286Z,43.28
2019-06-08T21:43:51.662Z,43.75
2019-06-08T21:46:24.413Z,43.61
2019-06-08T21:49:00.586Z,43.39
2019-06-08T21:51:34.027Z,43.36
2019-06-08T21:54:09.674Z,43.57
2019-06-08T21:56:47.599Z,44.01
2019-06-08T21:59:24.651Z,42.92
2019-06-08T22:02:03.495Z,42.92
2019-06-08T22:04:37.213Z,43.28
2019-06-08T22:07:11.946Z,43.28
2019-06-08T22:09:48.025Z,43.43
2019-06-08T22:12:22.683Z,43.46
2019-06-08T22:14:59.286Z,43.46
2019-06-08T22:17:31.953Z,43.46
2019-06-08T22:20:08.067Z,43.86
2019-06-08T22:22:42.922Z,43.86
2019-06-08T22:25:17.705Z,43.85
2019-06-08T22:27:51.074Z,44.01
2019-06-08T22:30:36.321Z,43.89
2019-06-08T22:33:02.359Z,43.96
2019-06-08T22:35:37.358Z,43.96
2019-06-08T22:38:13.278Z,43.56
2019-06-08T22:40:48.286Z,44.07
2019-06-08T22:43:23.283Z,43.98
2019-06-08T22:46:00.239Z,44.16
2019-06-08T22:48:33.888Z,43.75
2019-06-08T22:51:09.277Z,43.73
2019-06-08T22:53:43.947Z,44.29
2019-06-08T22:56:18.448Z,44.42
2019-06-08T22:58:54.367Z,44.70
2019-06-08T23:01:29.669Z,44.78
2019-06-08T23:04:06.265Z,44.78
2019-06-08T23:06:41.776Z,44.61
2019-06-08T23:09:17.996Z,44.61
2019-06-08T23:11:55.552Z,45.10
2019-06-08T23:14:30.319Z,45.09
2019-06-08T23:17:05.567Z,45.09
2019-06-08T23:19:40.266Z,45.05
2019-06-08T23:22:14.788Z,45.31
2019-06-08T23:24:47.806Z,44.99
2019-06-08T23:27:22.347Z,45.55
2019-06-08T23:29:59.094Z,44.91
2019-06-08T23:32:33.201Z,45.42
2019-06-08T23:35:09.367Z,45.22
2019-06-08T23:37:44.110Z,44.63
2019-06-08T23:40:18.675Z,44.93
2019-06-08T23:42:52.939Z,44.93
2019-06-08T23:45:27.199Z,45.38
2019-06-08T23:48:02.846Z,45.11
2019-06-08T23:50:37.909Z,45.12
2019-06-08T23:53:12.655Z,44.97
2019-06-08T23:55:47.964Z,44.97
2019-06-08T23:58:22.662Z,45.06
